Time;durP1;ratioP1;P1;durP2;ratioP2;P2;SDS_P1;SDS_P2;PMS_P1;PMS_P2;Temp;Humidity;BMP_temperature;BMP_pressure;BME280_temperature;BME280_humidity;BME280_pressure;Samples;Min_cycle;Max_cycle;Signal;HPM_P1;HPM_P2
2022/11/24 00:00:46;;;;;;;5.90;2.20;;;8.20;99.90;;;;;;5082571;28;20490;-79
2022/11/24 00:03:12;;;;;;;8.07;2.33;;;8.10;99.90;;;;;;5090621;28;20028;-79
2022/11/24 00:05:38;;;;;;;2.95;1.80;;;8.10;99.90;;;;;;5071127;28;20024;-79
2022/11/24 00:08:04;;;;;;;3.83;1.70;;;8.20;99.90;;;;;;5071454;28;20025;-79
2022/11/24 00:10:29;;;;;;;3.92;1.88;;;8.00;99.90;;;;;;5071283;28;20016;-79
2022/11/24 00:12:55;;;;;;;4.22;2.17;;;8.00;99.90;;;;;;5070666;28;20135;-79
2022/11/24 00:15:20;;;;;;;3.65;1.90;;;8.20;99.90;;;;;;5070027;28;20029;-79
2022/11/24 00:17:46;;;;;;;4.30;1.63;;;8.20;99.90;;;;;;5069854;28;20074;-79
2022/11/24 00:20:12;;;;;;;4.82;2.03;;;8.00;99.90;;;;;;5071135;28;20478;-79
2022/11/24 00:22:37;;;;;;;6.18;2.30;;;8.00;99.90;;;;;;5069506;28;20498;-79
2022/11/24 00:25:04;;;;;;;6.57;2.40;;;7.90;99.90;;;;;;5070746;28;20506;-79
2022/11/24 00:27:29;;;;;;;4.95;2.95;;;7.90;99.90;;;;;;5069335;28;20032;-79
2022/11/24 00:29:55;;;;;;;5.10;2.05;;;7.80;99.90;;;;;;5069802;28;20032;-79
2022/11/24 00:32:21;;;;;;;6.85;2.50;;;7.80;99.90;;;;;;5069773;28;20490;-79
2022/11/24 00:34:46;;;;;;;4.60;2.55;;;7.90;99.90;;;;;;5071071;28;20033;-79
2022/11/24 00:37:12;;;;;;;7.50;2.40;;;7.80;99.90;;;;;;5070925;28;20056;-79
2022/11/24 00:39:38;;;;;;;5.72;2.40;;;7.90;99.90;;;;;;5070954;28;20383;-79
2022/11/24 00:42:03;;;;;;;2.28;1.48;;;7.90;99.90;;;;;;5070261;28;20089;-79
2022/11/24 00:44:29;;;;;;;4.60;1.80;;;7.90;99.90;;;;;;5070958;28;20040;-79
2022/11/24 00:46:55;;;;;;;3.55;2.03;;;7.80;99.90;;;;;;5071008;28;20051;-79
2022/11/24 00:49:20;;;;;;;2.28;1.52;;;7.70;99.90;;;;;;5090234;28;20374;-79
2022/11/24 00:51:46;;;;;;;3.70;1.40;;;7.70;99.90;;;;;;5091276;28;20400;-79
2022/11/24 00:54:12;;;;;;;4.10;1.77;;;7.70;99.90;;;;;;5089121;28;20028;-79
2022/11/24 00:56:37;;;;;;;3.33;1.90;;;7.60;99.90;;;;;;5090879;28;20499;-79
2022/11/24 00:59:03;;;;;;;3.38;1.38;;;7.70;99.90;;;;;;5072960;28;20086;-79
2022/11/24 01:01:32;;;;;;;3.72;1.50;;;7.90;99.90;;;;;;5070730;28;20494;-79
2022/11/24 01:04:02;;;;;;;5.07;1.63;;;7.50;99.90;;;;;;5081881;28;20028;-79
2022/11/24 01:06:29;;;;;;;5.88;1.70;;;7.40;99.90;;;;;;5070355;28;20017;-79
2022/11/24 01:08:56;;;;;;;4.95;2.13;;;7.30;99.90;;;;;;5068965;28;20035;-79
2022/11/24 01:11:28;;;;;;;5.53;1.70;;;7.40;99.90;;;;;;5070032;28;20013;-79
2022/11/24 01:13:57;;;;;;;;;;;7.20;99.90;;;;;;5069354;28;20116;-79
2022/11/24 01:16:33;;;;;;;8.32;3.08;;;7.20;99.90;;;;;;5070913;28;19904;-79
2022/11/24 01:18:59;;;;;;;5.47;3.03;;;7.20;99.90;;;;;;5069989;28;20030;-79
2022/11/24 01:21:25;;;;;;;7.97;3.00;;;7.30;99.90;;;;;;5070249;28;20017;-79
2022/11/24 01:23:51;;;;;;;6.88;3.78;;;7.20;99.90;;;;;;5069670;28;20031;-79
2022/11/24 01:26:21;;;;;;;9.43;3.35;;;7.20;99.90;;;;;;5074632;28;20050;-79
2022/11/24 01:28:51;;;;;;;6.68;3.45;;;7.10;99.90;;;;;;5088913;28;20035;-79
2022/11/24 01:31:16;;;;;;;6.93;3.35;;;7.10;99.90;;;;;;5090597;28;20020;-79
2022/11/24 01:33:42;;;;;;;7.75;3.50;;;7.00;99.90;;;;;;5088950;28;20571;-78
2022/11/24 01:36:08;;;;;;;8.32;3.47;;;7.00;99.90;;;;;;5090037;28;20409;-79
2022/11/24 01:38:34;;;;;;;6.95;3.03;;;7.10;99.90;;;;;;5090204;28;20493;-79
2022/11/24 01:41:00;;;;;;;5.32;2.67;;;6.80;99.90;;;;;;5088456;28;20020;-79
2022/11/24 01:43:26;;;;;;;9.82;3.33;;;6.80;99.90;;;;;;5089207;28;20038;-79
2022/11/24 01:45:52;;;;;;;9.32;3.72;;;6.80;99.90;;;;;;5089943;28;20016;-79
2022/11/24 01:48:28;;;;;;;6.55;3.20;;;6.80;99.90;;;;;;5090315;28;20024;-78
2022/11/24 01:51:07;;;;;;;6.43;3.33;;;6.90;99.90;;;;;;5090295;28;20111;-78
2022/11/24 01:53:33;;;;;;;4.50;2.58;;;7.00;99.90;;;;;;5089734;28;20176;-78
2022/11/24 01:55:58;;;;;;;6.40;2.90;;;6.90;99.90;;;;;;5090102;28;20497;-78
2022/11/24 01:58:28;;;;;;;5.85;2.70;;;6.90;99.90;;;;;;5077570;28;20078;-78
2022/11/24 02:00:53;;;;;;;4.10;2.10;;;7.00;99.90;;;;;;5070060;28;20099;-78
2022/11/24 02:03:28;;;;;;;4.60;2.50;;;6.90;99.90;;;;;;5080055;28;20570;-77
2022/11/24 02:06:13;;;;;;;2.83;1.88;;;6.80;99.90;;;;;;5069492;28;20048;-78
2022/11/24 02:09:05;;;;;;;4.00;2.10;;;6.80;99.90;;;;;;5069271;28;20028;-78
2022/11/24 02:11:36;;;;;;;4.65;2.13;;;6.60;99.90;;;;;;5074455;28;20020;-77
2022/11/24 02:14:04;;;;;;;7.03;1.98;;;6.70;99.90;;;;;;5069586;28;20173;-78
2022/11/24 02:16:33;;;;;;;2.90;1.60;;;6.70;99.90;;;;;;5072663;28;20078;-78
2022/11/24 02:18:58;;;;;;;4.72;1.85;;;6.60;99.90;;;;;;5073289;28;20040;-77
2022/11/24 02:21:24;;;;;;;3.20;1.73;;;6.70;99.90;;;;;;5073379;28;20020;-78
2022/11/24 02:24:07;;;;;;;4.15;2.00;;;6.60;99.90;;;;;;5071934;28;20532;-77
2022/11/24 02:26:40;;;;;;;3.72;1.58;;;6.70;99.90;;;;;;5080107;28;20125;-78
2022/11/24 02:29:06;;;;;;;5.15;1.80;;;6.50;99.90;;;;;;5093309;28;20103;-78
2022/11/24 02:31:32;;;;;;;3.28;1.60;;;6.50;99.90;;;;;;5093683;28;20116;-77
2022/11/24 02:33:58;;;;;;;5.22;2.20;;;6.40;99.90;;;;;;5093655;28;20081;-78
2022/11/24 02:36:24;;;;;;;3.85;1.58;;;6.50;99.90;;;;;;5093389;28;20032;-77
2022/11/24 02:38:49;;;;;;;3.00;1.67;;;6.50;99.90;;;;;;5092003;28;20107;-77
2022/11/24 02:41:20;;;;;;;4.93;1.65;;;6.50;99.90;;;;;;5093066;28;20063;-78
2022/11/24 02:43:58;;;;;;;3.15;1.55;;;6.60;99.90;;;;;;5093264;28;20024;-77
2022/11/24 02:46:24;;;;;;;3.97;1.70;;;6.40;99.90;;;;;;5091934;28;20040;-77
2022/11/24 02:48:50;;;;;;;3.83;1.60;;;6.40;99.90;;;;;;5092585;28;20565;-78
2022/11/24 02:51:16;;;;;;;5.38;2.05;;;6.20;99.90;;;;;;5091303;28;20024;-78
2022/11/24 02:53:42;;;;;;;4.75;1.45;;;6.10;99.90;;;;;;5093409;28;20035;-78
2022/11/24 02:56:08;;;;;;;4.50;1.95;;;6.10;99.90;;;;;;5092832;28;20028;-78
2022/11/24 02:58:33;;;;;;;5.75;1.50;;;6.40;99.90;;;;;;5077787;28;20497;-78
2022/11/24 03:00:59;;;;;;;3.28;1.80;;;6.10;99.90;;;;;;5072669;28;20055;-78
2022/11/24 03:03:25;;;;;;;2.28;1.63;;;6.30;99.90;;;;;;5084802;28;20099;-78
2022/11/24 03:05:51;;;;;;;4.50;1.67;;;6.10;99.90;;;;;;5071276;28;20138;-78
2022/11/24 03:08:17;;;;;;;2.70;1.73;;;6.20;99.90;;;;;;5071123;28;20107;-78
2022/11/24 03:10:43;;;;;;;4.30;2.10;;;6.10;99.90;;;;;;5072310;28;20020;-77
2022/11/24 03:13:09;;;;;;;4.90;2.38;;;6.00;99.90;;;;;;5070949;28;20020;-78
2022/11/24 03:15:35;;;;;;;6.07;2.50;;;6.10;99.90;;;;;;5072088;28;20522;-78
2022/11/24 03:18:01;;;;;;;4.70;2.20;;;6.00;99.90;;;;;;5070925;28;20047;-78
2022/11/24 03:20:27;;;;;;;5.80;2.35;;;6.10;99.90;;;;;;5072464;28;20036;-78
2022/11/24 03:22:53;;;;;;;4.25;2.45;;;6.00;99.90;;;;;;5072025;28;20029;-78
2022/11/24 03:25:19;;;;;;;5.55;2.47;;;6.10;99.90;;;;;;5071669;28;20533;-78
2022/11/24 03:27:45;;;;;;;5.30;2.42;;;5.90;99.90;;;;;;5088966;28;20024;-78
2022/11/24 03:30:12;;;;;;;4.03;2.42;;;5.80;99.90;;;;;;5090906;28;20485;-78
2022/11/24 03:32:37;;;;;;;4.95;2.35;;;5.90;99.90;;;;;;5092211;28;20088;-78
2022/11/24 03:35:04;;;;;;;5.82;2.78;;;6.10;99.90;;;;;;5091550;28;20116;-78
2022/11/24 03:37:29;;;;;;;5.47;2.75;;;5.90;99.90;;;;;;5092021;28;20036;-78
2022/11/24 03:39:55;;;;;;;4.10;2.22;;;5.90;99.90;;;;;;5092469;28;20032;-78
2022/11/24 03:42:21;;;;;;;6.35;2.67;;;5.80;99.90;;;;;;5091876;28;20405;-78
2022/11/24 03:44:47;;;;;;;5.00;2.30;;;5.90;99.90;;;;;;5091731;28;20032;-78
2022/11/24 03:47:12;;;;;;;3.70;2.00;;;5.80;99.90;;;;;;5091711;28;20028;-77
2022/11/24 03:49:40;;;;;;;4.47;1.90;;;5.80;99.90;;;;;;5090654;28;20024;-77
2022/11/24 03:52:06;;;;;;;3.20;2.10;;;5.60;99.90;;;;;;5091948;28;20054;-78
2022/11/24 03:54:32;;;;;;;2.45;1.58;;;5.80;99.90;;;;;;5090695;28;20035;-78
2022/11/24 03:56:58;;;;;;;3.00;1.83;;;5.70;99.90;;;;;;5090338;28;20040;-78
2022/11/24 03:59:23;;;;;;;2.25;1.80;;;5.80;99.90;;;;;;5070301;28;20027;-78
2022/11/24 04:01:49;;;;;;;4.57;1.75;;;5.70;99.90;;;;;;5071482;28;20024;-78
2022/11/24 04:04:15;;;;;;;5.30;1.73;;;5.70;99.90;;;;;;5082753;28;20028;-78
2022/11/24 04:06:40;;;;;;;4.05;1.90;;;5.70;99.90;;;;;;5071507;28;20027;-78
2022/11/24 04:09:07;;;;;;;5.00;1.98;;;5.50;99.90;;;;;;5069758;28;20017;-78
2022/11/24 04:14:18;;;;;;;3.95;1.80;;;5.70;99.90;;;;;;5070981;28;20043;-78
2022/11/24 04:16:44;;;;;;;3.20;1.70;;;5.70;99.90;;;;;;5071085;28;20020;-78
2022/11/24 04:19:09;;;;;;;2.72;1.70;;;5.80;99.90;;;;;;5070693;28;20402;-78
2022/11/24 04:21:35;;;;;;;4.82;1.90;;;5.70;99.90;;;;;;5070966;28;20029;-78
2022/11/24 04:24:01;;;;;;;3.60;1.98;;;5.70;99.90;;;;;;5071311;28;20052;-78
2022/11/24 04:26:26;;;;;;;3.30;1.73;;;5.70;99.90;;;;;;5076831;28;20095;-78
2022/11/24 04:28:52;;;;;;;2.60;1.90;;;5.50;99.90;;;;;;5091353;28;20028;-78
2022/11/24 04:31:18;;;;;;;3.70;1.77;;;5.50;99.90;;;;;;5090131;28;20016;-78
2022/11/24 04:33:43;;;;;;;3.45;1.90;;;5.70;99.90;;;;;;5090632;28;20028;-78
2022/11/24 04:36:09;;;;;;;5.15;1.85;;;5.50;99.90;;;;;;5090965;28;20032;-78
2022/11/24 04:38:35;;;;;;;3.50;1.83;;;5.60;99.90;;;;;;5089052;28;20142;-78
2022/11/24 04:41:04;;;;;;;3.22;2.10;;;5.50;99.90;;;;;;5091513;28;20024;-77
2022/11/24 04:43:31;;;;;;;3.20;1.45;;;5.50;99.90;;;;;;5091504;28;20492;-78
2022/11/24 04:46:00;;;;;;;6.20;1.83;;;5.60;99.90;;;;;;5084666;28;20489;-78
2022/11/24 04:48:27;;;;;;;4.20;1.70;;;5.50;99.90;;;;;;5076792;28;20035;-78
2022/11/24 04:50:53;;;;;;;3.65;2.03;;;5.60;99.90;;;;;;5084612;28;20016;-78
2022/11/24 04:53:19;;;;;;;3.88;2.40;;;5.50;99.90;;;;;;5083530;28;20482;-78
2022/11/24 04:55:44;;;;;;;3.47;2.10;;;5.50;99.90;;;;;;5072701;28;20037;-78
2022/11/24 04:58:10;;;;;;;3.90;1.98;;;5.60;99.90;;;;;;5072633;28;20034;-78
2022/11/24 05:00:38;;;;;;;4.90;2.47;;;5.40;99.90;;;;;;5083986;28;20095;-78
2022/11/24 05:03:04;;;;;;;4.40;2.33;;;5.40;99.90;;;;;;5083351;28;20031;-79
2022/11/24 05:05:30;;;;;;;4.90;2.78;;;5.50;99.90;;;;;;5085215;28;20489;-79
2022/11/24 05:07:58;;;;;;;5.72;2.83;;;5.40;99.90;;;;;;5083466;28;20497;-78
2022/11/24 05:10:36;;;;;;;6.82;3.28;;;5.50;99.90;;;;;;5071143;28;20184;-78
2022/11/24 05:13:08;;;;;;;6.68;3.33;;;5.50;99.90;;;;;;5070885;28;20098;-78
2022/11/24 05:15:36;;;;;;;5.75;2.72;;;5.60;99.90;;;;;;5068914;28;20067;-78
2022/11/24 05:18:15;;;;;;;4.32;2.63;;;5.40;99.90;;;;;;5071552;28;20031;-78
2022/11/24 05:20:43;;;;;;;5.97;3.10;;;5.40;99.90;;;;;;5080084;28;20047;-78
2022/11/24 05:23:09;;;;;;;6.07;3.13;;;5.40;99.90;;;;;;5082861;28;20028;-78
2022/11/24 05:25:35;;;;;;;4.82;2.88;;;5.50;99.90;;;;;;5081318;28;20052;-78
2022/11/24 05:28:02;;;;;;;6.70;3.42;;;5.30;99.90;;;;;;5085229;28;20055;-78
2022/11/24 05:30:29;;;;;;;3.75;2.40;;;5.40;99.90;;;;;;5080359;28;20166;-78
2022/11/24 05:32:55;;;;;;;6.43;3.20;;;5.30;99.90;;;;;;5077655;28;20020;-78
2022/11/24 05:35:21;;;;;;;5.40;2.83;;;5.40;99.90;;;;;;5078965;28;20077;-78
2022/11/24 05:37:47;;;;;;;4.50;2.97;;;5.20;99.90;;;;;;5070628;28;20103;-77
2022/11/24 05:40:13;;;;;;;4.75;2.38;;;5.20;99.90;;;;;;5070275;28;20490;-78
2022/11/24 05:42:41;;;;;;;4.30;2.70;;;5.10;99.90;;;;;;5070213;28;20031;-78
2022/11/24 05:45:19;;;;;;;3.67;2.33;;;5.30;99.90;;;;;;5070359;28;20025;-77
2022/11/24 05:47:45;;;;;;;3.20;2.05;;;5.10;99.90;;;;;;5077084;28;20106;-78
2022/11/24 05:50:14;;;;;;;3.47;2.20;;;5.30;99.90;;;;;;5090665;28;20048;-78
2022/11/24 05:52:40;;;;;;;5.28;2.45;;;5.10;99.90;;;;;;5086527;28;20024;-78
2022/11/24 05:55:07;;;;;;;3.30;1.88;;;5.20;99.90;;;;;;5089953;28;20029;-78
2022/11/24 05:57:33;;;;;;;5.13;2.10;;;5.10;99.90;;;;;;5092414;28;20031;-78
2022/11/24 05:59:59;;;;;;;3.92;2.53;;;4.90;99.90;;;;;;5093991;28;20174;-78
2022/11/24 06:02:25;;;;;;;5.03;2.40;;;4.90;99.90;;;;;;5091765;28;20034;-78
2022/11/24 06:04:51;;;;;;;6.20;2.03;;;5.10;99.90;;;;;;5092510;28;20032;-78
2022/11/24 06:07:17;;;;;;;4.57;3.10;;;4.90;99.90;;;;;;5081092;28;20067;-78
2022/11/24 06:09:43;;;;;;;4.78;2.58;;;5.00;99.90;;;;;;5081068;28;20021;-77
2022/11/24 06:12:10;;;;;;;5.13;2.80;;;5.00;99.90;;;;;;5087034;28;20025;-77
2022/11/24 06:14:37;;;;;;;5.28;3.38;;;5.00;99.90;;;;;;5087153;28;20047;-77
2022/11/24 06:17:03;;;;;;;4.82;3.28;;;5.00;99.90;;;;;;5081272;28;20047;-77
2022/11/24 06:19:29;;;;;;;5.32;3.05;;;5.20;99.90;;;;;;5079329;28;20032;-77
2022/11/24 06:21:55;;;;;;;5.85;3.50;;;5.10;99.90;;;;;;5081463;28;20023;-77
2022/11/24 06:24:21;;;;;;;5.32;3.63;;;5.30;99.90;;;;;;5079976;28;20604;-79
2022/11/24 06:26:46;;;;;;;4.93;3.10;;;5.10;99.90;;;;;;5095049;28;20028;-79
2022/11/24 06:29:12;;;;;;;4.90;3.20;;;5.10;99.90;;;;;;5079036;28;20459;-79
2022/11/24 06:31:38;;;;;;;5.05;3.10;;;5.00;99.90;;;;;;5086824;28;20048;-79
2022/11/24 06:34:10;;;;;;;4.68;2.78;;;5.10;99.90;;;;;;5085559;28;20039;-79
2022/11/24 06:36:36;;;;;;;3.25;2.30;;;5.10;99.90;;;;;;5080185;28;20035;-79
2022/11/24 06:39:04;;;;;;;3.22;2.53;;;5.20;99.90;;;;;;5080463;28;20051;-79
2022/11/24 06:41:29;;;;;;;5.22;2.67;;;4.90;99.90;;;;;;5085252;28;20031;-78
2022/11/24 06:43:55;;;;;;;4.78;2.78;;;5.00;99.90;;;;;;5086802;28;20489;-79
2022/11/24 06:46:21;;;;;;;3.30;2.50;;;4.90;99.90;;;;;;5072804;28;20021;-78
2022/11/24 06:48:49;;;;;;;8.05;3.20;;;4.80;99.90;;;;;;5086897;28;20025;-79
2022/11/24 06:51:17;;;;;;;4.20;2.97;;;4.90;99.90;;;;;;5081125;28;20034;-79
2022/11/24 06:53:43;;;;;;;5.47;2.83;;;4.90;99.90;;;;;;5079757;28;20039;-79
2022/11/24 06:56:11;;;;;;;5.00;2.78;;;4.80;99.90;;;;;;5084060;28;20029;-79
2022/11/24 06:58:46;;;;;;;4.93;3.30;;;5.00;99.90;;;;;;5087005;28;20077;-79
2022/11/24 07:01:20;;;;;;;4.60;3.20;;;4.90;99.90;;;;;;5091219;28;20031;-79
2022/11/24 07:03:47;;;;;;;8.38;3.47;;;5.00;99.90;;;;;;5086351;28;20051;-79
2022/11/24 07:06:13;;;;;;;6.35;2.88;;;4.90;99.90;;;;;;5072475;28;20016;-79
2022/11/24 07:08:38;;;;;;;4.93;2.97;;;5.10;99.90;;;;;;5072649;28;20498;-79
2022/11/24 07:11:06;;;;;;;4.95;2.75;;;5.00;99.90;;;;;;5072368;28;20509;-79
2022/11/24 07:13:31;;;;;;;4.35;2.75;;;5.10;99.90;;;;;;5072550;28;20028;-79
2022/11/24 07:15:57;;;;;;;5.15;2.90;;;4.90;99.90;;;;;;5071294;28;20021;-79
2022/11/24 07:18:23;;;;;;;4.50;2.75;;;4.90;99.90;;;;;;5072591;28;20021;-79
2022/11/24 07:20:49;;;;;;;3.08;2.42;;;4.90;99.90;;;;;;5072099;28;20478;-79
2022/11/24 07:23:14;;;;;;;3.35;2.35;;;5.10;99.90;;;;;;5072350;28;20470;-79
2022/11/24 07:25:40;;;;;;;5.22;2.90;;;5.10;99.90;;;;;;5072017;28;20044;-79
2022/11/24 07:28:05;;;;;;;4.47;2.78;;;5.40;99.90;;;;;;5092195;28;20477;-79
2022/11/24 07:30:31;;;;;;;5.45;3.35;;;5.30;99.90;;;;;;5092404;28;20016;-79
2022/11/24 07:32:58;;;;;;;5.13;2.78;;;5.50;99.90;;;;;;5091973;28;20027;-79
2022/11/24 07:35:24;;;;;;;6.80;2.97;;;5.60;99.90;;;;;;5092150;28;20093;-78
2022/11/24 07:37:56;;;;;;;3.95;2.80;;;5.60;99.90;;;;;;5086881;28;20525;-78
2022/11/24 07:40:24;;;;;;;4.47;3.15;;;5.60;99.90;;;;;;5070783;28;20498;-78
2022/11/24 07:42:49;;;;;;;5.78;3.67;;;5.70;99.90;;;;;;5071824;28;20033;-78
2022/11/24 07:45:15;;;;;;;4.85;3.55;;;5.70;99.90;;;;;;5072515;28;20025;-78
2022/11/24 07:47:41;;;;;;;4.55;3.53;;;5.90;99.90;;;;;;5078341;28;20028;-76
2022/11/24 07:50:11;;;;;;;4.63;3.17;;;5.80;99.90;;;;;;5092212;28;20024;-76
2022/11/24 07:52:37;;;;;;;6.07;3.58;;;6.00;99.90;;;;;;5090434;28;20028;-76
2022/11/24 07:55:03;;;;;;;6.10;3.55;;;5.90;99.90;;;;;;5092222;28;20028;-76
2022/11/24 07:57:29;;;;;;;5.15;2.90;;;5.90;99.90;;;;;;5086994;28;20028;-76
2022/11/24 07:59:55;;;;;;;5.00;3.22;;;5.90;99.90;;;;;;5071455;28;20520;-76
2022/11/24 08:02:21;;;;;;;5.38;3.00;;;6.00;99.90;;;;;;5077670;28;20064;-76
2022/11/24 08:04:47;;;;;;;7.28;3.35;;;6.00;99.90;;;;;;5081327;28;20059;-76
2022/11/24 08:07:13;;;;;;;4.40;3.10;;;6.20;99.90;;;;;;5081612;28;20491;-76
2022/11/24 08:09:38;;;;;;;5.57;3.33;;;6.10;99.90;;;;;;5077496;28;20417;-77
2022/11/24 08:12:04;;;;;;;5.60;3.10;;;6.10;99.90;;;;;;5084391;28;20021;-77
2022/11/24 08:14:30;;;;;;;7.03;4.10;;;6.20;99.90;;;;;;5091541;28;20092;-77
2022/11/24 08:16:57;;;;;;;5.50;3.53;;;6.30;99.90;;;;;;5089850;28;20031;-77
2022/11/24 08:19:22;;;;;;;8.98;5.07;;;6.40;99.90;;;;;;5081298;28;20028;-76
2022/11/24 08:21:48;;;;;;;10.30;6.43;;;6.50;99.90;;;;;;5071154;28;20043;-77
2022/11/24 08:24:15;;;;;;;12.60;7.32;;;6.70;99.90;;;;;;5074229;28;20045;-77
2022/11/24 08:26:41;;;;;;;11.95;6.75;;;6.80;99.90;;;;;;5078432;28;20020;-76
2022/11/24 08:29:07;;;;;;;13.82;7.97;;;6.90;99.90;;;;;;5076737;28;20024;-77
2022/11/24 08:31:34;;;;;;;15.93;9.15;;;7.00;99.90;;;;;;5074947;28;20028;-76
2022/11/24 08:34:01;;;;;;;15.20;8.40;;;7.00;99.90;;;;;;5078406;28;20024;-76
2022/11/24 08:36:27;;;;;;;13.52;7.20;;;7.10;99.90;;;;;;5076374;28;20039;-76
2022/11/24 08:38:57;;;;;;;15.50;7.68;;;7.00;99.90;;;;;;5084105;28;20032;-77
2022/11/24 08:41:24;;;;;;;13.63;6.95;;;7.00;99.90;;;;;;5070459;28;20020;-77
2022/11/24 08:43:49;;;;;;;12.30;6.88;;;7.00;99.90;;;;;;5082376;28;20519;-77
2022/11/24 08:46:17;;;;;;;12.77;6.60;;;7.10;99.90;;;;;;5069713;28;20024;-76
2022/11/24 08:48:51;;;;;;;12.82;6.30;;;7.00;99.90;;;;;;5087775;28;20027;-77
2022/11/24 08:51:19;;;;;;;12.40;7.00;;;7.10;99.90;;;;;;5079753;28;20100;-77
2022/11/24 08:53:45;;;;;;;13.07;7.05;;;7.20;99.90;;;;;;5082240;28;20037;-77
2022/11/24 08:56:12;;;;;;;10.35;5.68;;;7.30;99.90;;;;;;5069747;28;20028;-77
2022/11/24 08:58:39;;;;;;;10.45;5.88;;;7.40;99.90;;;;;;5077967;28;20028;-77
2022/11/24 09:01:10;;;;;;;11.48;6.13;;;7.40;99.90;;;;;;5070399;28;20025;-78
2022/11/24 09:03:37;;;;;;;10.13;5.45;;;7.50;99.90;;;;;;5087990;28;20039;-77
2022/11/24 09:06:03;;;;;;;8.90;5.13;;;7.50;99.90;;;;;;5069966;28;20021;-77
2022/11/24 09:08:30;;;;;;;7.30;4.53;;;7.70;99.90;;;;;;5075187;28;20474;-77
2022/11/24 09:11:07;;;;;;;6.22;4.15;;;7.60;99.90;;;;;;5070183;28;20087;-77
2022/11/24 09:13:34;;;;;;;7.55;4.28;;;7.80;99.90;;;;;;5081494;28;20081;-77
2022/11/24 09:16:04;;;;;;;7.63;4.38;;;7.80;99.90;;;;;;5075835;28;20028;-77
2022/11/24 09:18:31;;;;;;;7.25;3.80;;;8.00;99.90;;;;;;5075598;28;20012;-78
2022/11/24 09:21:15;;;;;;;9.20;4.30;;;8.00;99.90;;;;;;5073434;28;20490;-77
2022/11/24 09:23:42;;;;;;;6.75;3.95;;;8.10;99.90;;;;;;5080110;28;20061;-77
2022/11/24 09:26:28;;;;;;;5.60;4.00;;;8.20;99.90;;;;;;5080387;28;20042;-77
2022/11/24 09:28:55;;;;;;;6.47;3.78;;;8.30;99.90;;;;;;5088401;28;20043;-77
2022/11/24 09:31:24;;;;;;;7.35;3.80;;;8.20;99.90;;;;;;5083845;28;20081;-77
2022/11/24 09:33:51;;;;;;;5.97;3.92;;;8.30;99.90;;;;;;5088051;28;20050;-78
2022/11/24 09:36:17;;;;;;;6.32;3.78;;;8.40;99.90;;;;;;5075549;28;20056;-78
2022/11/24 09:38:42;;;;;;;5.70;3.95;;;8.90;99.90;;;;;;5091487;28;20078;-77
2022/11/24 09:41:14;;;;;;;5.45;3.60;;;9.10;99.90;;;;;;5070838;28;20024;-78
2022/11/24 09:43:46;;;;;;;;;;;9.00;99.90;;;;;;5077365;28;20052;-78
2022/11/24 09:46:15;;;;;;;4.28;2.75;;;8.80;99.90;;;;;;5069784;28;19908;-78
2022/11/24 09:48:45;;;;;;;5.07;3.03;;;8.80;99.90;;;;;;5090812;28;20047;-78
2022/11/24 09:51:13;;;;;;;5.32;3.20;;;8.90;99.90;;;;;;5081800;28;20029;-77
2022/11/24 09:53:44;;;;;;;5.60;3.05;;;9.00;99.90;;;;;;5077347;28;20046;-78
2022/11/24 09:56:20;;;;;;;;;;;9.20;99.90;;;;;;5090550;28;20032;-78
2022/11/24 09:58:53;;;;;;;6.15;2.97;;;9.20;99.90;;;;;;5076067;28;19908;-78
2022/11/24 10:01:24;;;;;;;4.60;2.58;;;9.20;99.90;;;;;;5076382;28;20115;-78
2022/11/24 10:03:52;;;;;;;4.93;2.83;;;9.20;99.90;;;;;;5083147;28;20097;-78
2022/11/24 10:06:30;;;;;;;5.55;2.47;;;9.20;99.90;;;;;;5082547;28;20143;-77
2022/11/24 10:09:23;;;;;;;4.82;2.53;;;9.10;99.90;;;;;;5070745;28;20029;-78
2022/11/24 10:11:52;;;;;;;5.88;2.45;;;9.00;99.90;;;;;;5067685;28;20028;-78
2022/11/24 10:14:17;;;;;;;3.78;2.28;;;9.20;99.90;;;;;;5081741;28;20042;-78
2022/11/24 10:16:58;;;;;;;3.45;2.00;;;9.20;99.90;;;;;;5082920;28;20107;-77
2022/11/24 10:19:50;;;;;;;3.67;2.08;;;9.30;99.90;;;;;;5079799;28;20090;-77
2022/11/24 10:22:44;;;;;;;3.15;2.00;;;9.50;99.90;;;;;;5069452;28;20194;-77
2022/11/24 10:25:36;;;;;;;3.97;2.58;;;9.40;99.90;;;;;;5062825;28;20518;-78
2022/11/24 10:28:08;;;;;;;6.03;2.70;;;9.40;99.90;;;;;;5086571;28;20059;-77
2022/11/24 10:30:34;;;;;;;6.57;2.67;;;9.50;99.90;;;;;;5077388;28;20016;-77
2022/11/24 10:33:17;;;;;;;6.10;2.92;;;9.40;99.90;;;;;;5069510;28;20544;-77
2022/11/24 10:36:02;;;;;;;4.20;2.80;;;9.50;99.90;;;;;;5069952;28;20024;-78
2022/11/24 10:38:40;;;;;;;4.78;2.70;;;9.50;99.90;;;;;;5078654;28;20073;-78
2022/11/24 10:41:13;;;;;;;5.20;3.35;;;9.70;99.90;;;;;;5073077;28;20071;-78
2022/11/24 10:43:41;;;;;;;7.40;2.90;;;9.80;99.90;;;;;;5079294;28;20123;-78
2022/11/24 10:46:13;;;;;;;4.93;2.92;;;9.90;99.90;;;;;;5071439;28;20051;-78
2022/11/24 10:48:52;;;;;;;5.28;3.13;;;9.80;99.90;;;;;;5086219;28;20020;-78
2022/11/24 10:51:50;;;;;;;5.18;3.10;;;10.00;99.90;;;;;;5072666;28;20036;-78
2022/11/24 10:54:22;;;;;;;6.47;3.58;;;10.10;99.90;;;;;;5073525;28;20032;-78
2022/11/24 10:56:51;;;;;;;7.85;3.22;;;10.20;99.90;;;;;;5072085;28;20104;-78
2022/11/24 10:59:36;;;;;;;9.38;3.83;;;10.20;99.90;;;;;;5073212;28;20029;-78
2022/11/24 11:02:27;;;;;;;5.95;3.20;;;10.30;99.90;;;;;;5073899;28;20047;-78
2022/11/24 11:04:52;;;;;;;6.60;3.28;;;10.40;99.90;;;;;;5090544;28;20501;-78
2022/11/24 11:07:24;;;;;;;5.93;3.70;;;10.50;99.90;;;;;;5070851;28;20051;-78
2022/11/24 11:09:50;;;;;;;6.55;2.88;;;10.50;99.90;;;;;;5084296;28;20064;-78
2022/11/24 11:12:28;;;;;;;5.28;3.03;;;10.60;99.90;;;;;;5072188;28;20563;-78
2022/11/24 11:14:54;;;;;;;5.03;3.30;;;10.60;99.90;;;;;;5080833;28;20112;-78
2022/11/24 11:17:37;;;;;;;5.38;3.50;;;10.80;99.90;;;;;;5070677;28;20115;-78
2022/11/24 11:20:17;;;;;;;7.40;3.53;;;10.80;99.90;;;;;;5077607;28;20048;-78
2022/11/24 11:22:45;;;;;;;6.55;3.08;;;10.80;99.90;;;;;;5085957;28;20028;-78
2022/11/24 11:25:26;;;;;;;8.23;3.85;;;10.70;99.90;;;;;;5080481;28;20048;-78
2022/11/24 11:28:16;;;;;;;4.82;2.55;;;10.80;99.90;;;;;;5087378;28;20043;-78
2022/11/24 11:31:04;;;;;;;4.22;2.83;;;10.80;99.90;;;;;;5080542;28;20024;-78
2022/11/24 11:33:35;;;;;;;3.95;2.63;;;10.80;99.90;;;;;;5086161;28;20524;-78
2022/11/24 11:36:07;;;;;;;5.28;2.50;;;10.90;99.90;;;;;;5076009;28;20119;-78
2022/11/24 11:38:38;;;;;;;4.65;2.67;;;10.80;99.90;;;;;;5074278;28;20521;-78
2022/11/24 11:41:06;;;;;;;2.97;2.10;;;11.00;99.90;;;;;;5072335;28;20213;-78
2022/11/24 11:43:35;;;;;;;6.43;3.13;;;11.00;99.90;;;;;;5071840;28;20107;-78
2022/11/24 11:46:16;;;;;;;5.32;2.90;;;11.10;99.90;;;;;;5069996;28;20132;-78
2022/11/24 11:48:46;;;;;;;4.90;2.72;;;11.10;99.90;;;;;;5083844;28;20027;-78
2022/11/24 11:51:26;;;;;;;4.10;2.20;;;11.20;99.90;;;;;;5069449;28;20513;-78
2022/11/24 11:54:01;;;;;;;3.83;2.10;;;11.20;99.90;;;;;;5074053;28;20501;-78
2022/11/24 11:56:34;;;;;;;3.50;1.92;;;11.10;99.90;;;;;;5077877;28;20047;-78
2022/11/24 11:59:12;;;;;;;2.80;1.98;;;11.20;99.90;;;;;;5074365;28;20039;-78
2022/11/24 12:02:00;;;;;;;4.05;2.70;;;11.20;99.90;;;;;;5075938;28;20522;-78
2022/11/24 12:04:49;;;;;;;3.38;2.03;;;11.40;99.90;;;;;;5077260;28;20489;-78
2022/11/24 12:07:37;;;;;;;5.57;1.92;;;11.50;99.90;;;;;;5063233;28;20028;-78
2022/11/24 12:10:19;;;;;;;3.97;2.20;;;11.50;99.90;;;;;;5078703;28;20032;-78
2022/11/24 12:13:22;;;;;;;3.78;2.13;;;11.40;99.90;;;;;;5070212;28;20494;-78
2022/11/24 12:15:56;;;;;;;5.95;2.72;;;11.40;99.90;;;;;;5077480;28;20086;-78
2022/11/24 12:19:16;;;;;;;5.28;2.15;;;11.40;99.90;;;;;;5070452;28;20024;-78
2022/11/24 12:22:02;;;;;;;2.92;1.73;;;11.70;99.90;;;;;;5027645;28;20624;-78
2022/11/24 12:24:53;;;;;;;3.95;1.75;;;11.70;99.90;;;;;;5022731;28;20146;-78
2022/11/24 12:27:47;;;;;;;4.60;1.45;;;11.70;99.90;;;;;;5040488;28;20498;-78
2022/11/24 12:30:17;;;;;;;3.85;1.85;;;11.60;99.90;;;;;;5038752;28;20025;-78
2022/11/24 12:33:30;;;;;;;3.95;1.60;;;11.70;99.90;;;;;;5010845;28;20037;-78
2022/11/24 12:36:25;;;;;;;2.85;1.63;;;11.70;99.90;;;;;;4963401;28;20077;-78
2022/11/24 12:39:18;;;;;;;4.72;1.90;;;11.70;99.90;;;;;;4948804;28;20050;-78
2022/11/24 12:42:02;;;;;;;6.63;2.22;;;12.10;99.90;;;;;;4959960;28;20565;-78
2022/11/24 12:44:52;;;;;;;4.10;2.03;;;12.30;99.90;;;;;;4947250;29;20392;-78
2022/11/24 12:47:42;;;;;;;5.85;1.77;;;12.40;99.90;;;;;;4965054;28;20039;-78
2022/11/24 12:50:13;;;;;;;7.07;2.40;;;12.60;99.90;;;;;;4965443;28;20065;-78
2022/11/24 12:52:46;;;;;;;7.90;2.25;;;12.70;99.90;;;;;;4995331;28;20041;-78
2022/11/24 12:55:19;;;;;;;6.55;2.13;;;12.70;99.90;;;;;;5016360;28;20033;-78
2022/11/24 12:58:02;;;;;;;8.23;2.60;;;12.80;99.90;;;;;;5007187;28;20034;-78
2022/11/24 13:00:58;;;;;;;7.55;2.85;;;12.50;99.90;;;;;;5013618;28;20050;-78
2022/11/24 13:03:42;;;;;;;6.10;2.00;;;12.60;99.90;;;;;;5017252;28;20030;-78
2022/11/24 13:06:28;;;;;;;5.32;1.92;;;12.60;99.90;;;;;;5028848;28;20049;-78
2022/11/24 13:08:55;;;;;;;5.43;1.90;;;12.60;99.90;;;;;;5067990;28;20040;-78
2022/11/24 13:11:21;;;;;;;3.85;2.00;;;12.60;99.90;;;;;;5074042;28;20035;-78
2022/11/24 13:14:04;;;;;;;5.38;1.90;;;12.70;99.90;;;;;;5068348;28;20438;-78